Condições meteorológicas de voo por instrumentos

Origem: Wikipédia, a enciclopédia livre.
Saltar para a navegação Saltar para a pesquisa

Instrument Meteorological Conditions (IMC) ou Condições Meteorológicas de voo por Instrumentos é o termo utilizado em aviação para informar que as operações aéreas devem acontecer normalmente através das regras IFR ou por Instrumentos (a exceção é o voo VFR especial).[1] Em oposição ao IMC há o VMC.

Deve-se lembrar que só existe IMC quando o grupo de nuvens apresentado na mensagem METAR está abaixo de 1500 pés de altura (valor menor que 015) e a quantidade de nuvens está cobrindo mais do que 5/8 do céu (BKN ou OVC). Outra situação de condições IMC é quando a visibilidade está abaixo de 5000 metros.

Ex de METAR com condições IMC:

  • METAR SBBI 211600Z 04005KT 9999 SCT008 BKN011 18/13 Q1019= (Nuvens de 5 a 7/8 abaixo de 1500 pés)
  • SBJV 211600Z 01008KT 3000 BR SCT010 SCT035 21/20 Q1018= (Visibilidade inferior a 5000 metros devido a névoa úmida)

Referências

Ícone de esboço Este artigo sobre aviação, integrado ao Projeto Aviação, é um esboço. Você pode ajudar a Wikipédia expandindo-o.